sensor_id;sensor_type;location;lat;lon;timestamp;temperature;humidity
51884;DHT22;37915;53.254;6.598;2023-03-14T00:01:22;9.20;99.90
51884;DHT22;37915;53.254;6.598;2023-03-14T00:03:48;9.20;99.90
51884;DHT22;37915;53.254;6.598;2023-03-14T00:06:14;9.20;99.90
51884;DHT22;37915;53.254;6.598;2023-03-14T00:08:40;9.20;99.90
51884;DHT22;37915;53.254;6.598;2023-03-14T00:11:13;9.20;99.90
51884;DHT22;37915;53.254;6.598;2023-03-14T00:13:39;9.20;99.90
51884;DHT22;37915;53.254;6.598;2023-03-14T00:16:09;9.20;99.90
51884;DHT22;37915;53.254;6.598;2023-03-14T00:18:35;9.30;99.90
51884;DHT22;37915;53.254;6.598;2023-03-14T00:21:01;9.30;99.90
51884;DHT22;37915;53.254;6.598;2023-03-14T00:23:28;9.30;99.90
51884;DHT22;37915;53.254;6.598;2023-03-14T00:25:57;9.30;99.90
51884;DHT22;37915;53.254;6.598;2023-03-14T00:28:23;10.50;99.90
51884;DHT22;37915;53.254;6.598;2023-03-14T00:30:49;9.40;99.90
51884;DHT22;37915;53.254;6.598;2023-03-14T00:33:14;9.40;99.90
51884;DHT22;37915;53.254;6.598;2023-03-14T00:35:40;9.50;99.90
51884;DHT22;37915;53.254;6.598;2023-03-14T00:38:05;9.50;99.90
51884;DHT22;37915;53.254;6.598;2023-03-14T00:40:31;9.60;99.90
51884;DHT22;37915;53.254;6.598;2023-03-14T00:42:57;9.60;99.90
51884;DHT22;37915;53.254;6.598;2023-03-14T00:45:22;9.60;99.90
51884;DHT22;37915;53.254;6.598;2023-03-14T00:47:48;9.60;99.90
51884;DHT22;37915;53.254;6.598;2023-03-14T00:50:13;9.60;99.90
51884;DHT22;37915;53.254;6.598;2023-03-14T00:52:39;9.50;99.90
51884;DHT22;37915;53.254;6.598;2023-03-14T00:55:05;9.60;99.90
51884;DHT22;37915;53.254;6.598;2023-03-14T00:57:30;9.60;99.90
51884;DHT22;37915;53.254;6.598;2023-03-14T00:59:56;9.60;99.90
51884;DHT22;37915;53.254;6.598;2023-03-14T01:02:22;9.60;99.90
51884;DHT22;37915;53.254;6.598;2023-03-14T01:04:48;9.60;99.90
51884;DHT22;37915;53.254;6.598;2023-03-14T01:07:14;9.60;99.90
51884;DHT22;37915;53.254;6.598;2023-03-14T01:09:40;9.60;99.90
51884;DHT22;37915;53.254;6.598;2023-03-14T01:12:05;9.60;99.90
51884;DHT22;37915;53.254;6.598;2023-03-14T01:14:31;9.60;99.90
51884;DHT22;37915;53.254;6.598;2023-03-14T01:16:57;9.70;99.90
51884;DHT22;37915;53.254;6.598;2023-03-14T01:19:26;9.70;99.90
51884;DHT22;37915;53.254;6.598;2023-03-14T01:21:52;9.70;99.90
51884;DHT22;37915;53.254;6.598;2023-03-14T01:24:18;9.70;99.90
51884;DHT22;37915;53.254;6.598;2023-03-14T01:26:43;9.80;99.90
51884;DHT22;37915;53.254;6.598;2023-03-14T01:29:09;9.80;99.90
51884;DHT22;37915;53.254;6.598;2023-03-14T01:31:35;9.80;99.90
51884;DHT22;37915;53.254;6.598;2023-03-14T01:34:03;9.80;99.90
51884;DHT22;37915;53.254;6.598;2023-03-14T01:36:28;9.90;99.90
51884;DHT22;37915;53.254;6.598;2023-03-14T01:38:54;9.90;99.90
51884;DHT22;37915;53.254;6.598;2023-03-14T01:41:23;9.90;99.90
51884;DHT22;37915;53.254;6.598;2023-03-14T01:43:49;10.00;99.90
51884;DHT22;37915;53.254;6.598;2023-03-14T01:46:20;10.00;99.90
51884;DHT22;37915;53.254;6.598;2023-03-14T01:49:02;10.00;99.90
51884;DHT22;37915;53.254;6.598;2023-03-14T01:51:48;10.00;99.90
51884;DHT22;37915;53.254;6.598;2023-03-14T01:56:41;10.00;99.90
51884;DHT22;37915;53.254;6.598;2023-03-14T01:59:08;10.10;99.90
51884;DHT22;37915;53.254;6.598;2023-03-14T02:01:35;10.10;99.90
51884;DHT22;37915;53.254;6.598;2023-03-14T02:04:01;10.00;99.90
51884;DHT22;37915;53.254;6.598;2023-03-14T02:06:43;10.00;99.90
51884;DHT22;37915;53.254;6.598;2023-03-14T02:09:10;10.00;99.90
51884;DHT22;37915;53.254;6.598;2023-03-14T02:11:35;10.00;99.90
51884;DHT22;37915;53.254;6.598;2023-03-14T02:14:01;10.00;99.90
51884;DHT22;37915;53.254;6.598;2023-03-14T02:16:27;9.90;99.90
51884;DHT22;37915;53.254;6.598;2023-03-14T02:18:52;9.90;99.90
51884;DHT22;37915;53.254;6.598;2023-03-14T02:21:20;9.90;99.90
51884;DHT22;37915;53.254;6.598;2023-03-14T02:26:34;9.80;99.90
51884;DHT22;37915;53.254;6.598;2023-03-14T02:29:00;9.80;99.90
51884;DHT22;37915;53.254;6.598;2023-03-14T02:31:26;9.70;99.90
51884;DHT22;37915;53.254;6.598;2023-03-14T02:33:51;9.70;99.90
51884;DHT22;37915;53.254;6.598;2023-03-14T02:36:17;9.70;99.90
51884;DHT22;37915;53.254;6.598;2023-03-14T02:38:50;9.70;99.90
51884;DHT22;37915;53.254;6.598;2023-03-14T02:41:18;9.70;99.90
51884;DHT22;37915;53.254;6.598;2023-03-14T02:43:43;9.60;99.90
51884;DHT22;37915;53.254;6.598;2023-03-14T02:46:13;9.60;99.90
51884;DHT22;37915;53.254;6.598;2023-03-14T02:51:10;9.60;99.90
51884;DHT22;37915;53.254;6.598;2023-03-14T02:53:37;9.50;99.90
51884;DHT22;37915;53.254;6.598;2023-03-14T02:56:03;9.50;99.90
51884;DHT22;37915;53.254;6.598;2023-03-14T02:58:29;9.50;99.90
51884;DHT22;37915;53.254;6.598;2023-03-14T03:00:54;9.40;99.90
51884;DHT22;37915;53.254;6.598;2023-03-14T03:03:20;9.40;99.90
51884;DHT22;37915;53.254;6.598;2023-03-14T03:05:49;9.40;99.90
51884;DHT22;37915;53.254;6.598;2023-03-14T03:08:16;9.30;99.90
51884;DHT22;37915;53.254;6.598;2023-03-14T03:10:41;9.30;99.90
51884;DHT22;37915;53.254;6.598;2023-03-14T03:13:07;9.40;99.90
51884;DHT22;37915;53.254;6.598;2023-03-14T03:15:32;9.30;99.90
51884;DHT22;37915;53.254;6.598;2023-03-14T03:17:58;9.30;99.90
51884;DHT22;37915;53.254;6.598;2023-03-14T03:20:23;9.30;99.90
51884;DHT22;37915;53.254;6.598;2023-03-14T03:22:49;9.20;99.90
51884;DHT22;37915;53.254;6.598;2023-03-14T03:25:15;9.20;99.90
51884;DHT22;37915;53.254;6.598;2023-03-14T03:27:40;9.20;99.90
51884;DHT22;37915;53.254;6.598;2023-03-14T03:30:07;9.10;99.90
51884;DHT22;37915;53.254;6.598;2023-03-14T03:32:33;9.10;99.90
51884;DHT22;37915;53.254;6.598;2023-03-14T03:34:59;8.90;99.90
51884;DHT22;37915;53.254;6.598;2023-03-14T03:37:24;8.90;99.90
51884;DHT22;37915;53.254;6.598;2023-03-14T03:39:50;8.80;99.90
51884;DHT22;37915;53.254;6.598;2023-03-14T03:42:17;8.80;99.90
51884;DHT22;37915;53.254;6.598;2023-03-14T03:44:43;8.80;99.90
51884;DHT22;37915;53.254;6.598;2023-03-14T03:47:08;8.70;99.90
51884;DHT22;37915;53.254;6.598;2023-03-14T03:49:34;8.70;99.90
51884;DHT22;37915;53.254;6.598;2023-03-14T03:52:00;8.70;99.90
51884;DHT22;37915;53.254;6.598;2023-03-14T03:54:25;8.70;99.90
51884;DHT22;37915;53.254;6.598;2023-03-14T03:56:51;8.70;99.90
51884;DHT22;37915;53.254;6.598;2023-03-14T03:59:17;8.70;99.90
51884;DHT22;37915;53.254;6.598;2023-03-14T04:01:43;8.70;99.90
51884;DHT22;37915;53.254;6.598;2023-03-14T04:04:09;8.70;99.90
51884;DHT22;37915;53.254;6.598;2023-03-14T04:06:34;8.70;99.90
51884;DHT22;37915;53.254;6.598;2023-03-14T04:09:00;8.70;99.90
51884;DHT22;37915;53.254;6.598;2023-03-14T04:11:25;8.70;99.90
51884;DHT22;37915;53.254;6.598;2023-03-14T04:13:51;8.70;99.90
51884;DHT22;37915;53.254;6.598;2023-03-14T04:16:18;8.70;99.90
51884;DHT22;37915;53.254;6.598;2023-03-14T04:18:44;8.70;99.90
51884;DHT22;37915;53.254;6.598;2023-03-14T04:21:09;8.70;99.90
51884;DHT22;37915;53.254;6.598;2023-03-14T04:23:35;8.70;99.90
51884;DHT22;37915;53.254;6.598;2023-03-14T04:26:00;8.70;99.90
51884;DHT22;37915;53.254;6.598;2023-03-14T04:28:26;8.70;99.90
51884;DHT22;37915;53.254;6.598;2023-03-14T04:30:52;8.70;99.90
51884;DHT22;37915;53.254;6.598;2023-03-14T04:33:18;8.70;99.90
51884;DHT22;37915;53.254;6.598;2023-03-14T04:35:44;8.70;99.90
51884;DHT22;37915;53.254;6.598;2023-03-14T04:38:10;8.70;99.90
51884;DHT22;37915;53.254;6.598;2023-03-14T04:40:39;8.70;99.90
51884;DHT22;37915;53.254;6.598;2023-03-14T04:43:05;8.70;99.90
51884;DHT22;37915;53.254;6.598;2023-03-14T04:45:31;8.60;99.90
51884;DHT22;37915;53.254;6.598;2023-03-14T04:47:56;8.60;99.90
51884;DHT22;37915;53.254;6.598;2023-03-14T04:50:22;8.60;99.90
51884;DHT22;37915;53.254;6.598;2023-03-14T04:52:48;8.60;99.90
51884;DHT22;37915;53.254;6.598;2023-03-14T04:55:13;8.60;99.90
51884;DHT22;37915;53.254;6.598;2023-03-14T04:57:39;8.60;99.90
51884;DHT22;37915;53.254;6.598;2023-03-14T05:00:05;8.60;99.90
51884;DHT22;37915;53.254;6.598;2023-03-14T05:02:31;8.60;99.90
51884;DHT22;37915;53.254;6.598;2023-03-14T05:04:57;8.60;99.90
51884;DHT22;37915;53.254;6.598;2023-03-14T05:07:22;8.60;99.90
51884;DHT22;37915;53.254;6.598;2023-03-14T05:09:48;8.50;99.90
51884;DHT22;37915;53.254;6.598;2023-03-14T05:12:14;8.50;99.90
51884;DHT22;37915;53.254;6.598;2023-03-14T05:14:39;8.50;99.90
51884;DHT22;37915;53.254;6.598;2023-03-14T05:17:05;8.50;99.90
51884;DHT22;37915;53.254;6.598;2023-03-14T05:19:30;8.50;99.90
51884;DHT22;37915;53.254;6.598;2023-03-14T05:21:56;8.50;99.90
51884;DHT22;37915;53.254;6.598;2023-03-14T05:24:22;9.50;99.90
51884;DHT22;37915;53.254;6.598;2023-03-14T05:26:47;8.50;99.90
51884;DHT22;37915;53.254;6.598;2023-03-14T05:29:13;8.40;99.90
51884;DHT22;37915;53.254;6.598;2023-03-14T05:31:38;8.40;99.90
51884;DHT22;37915;53.254;6.598;2023-03-14T05:34:04;8.40;99.90
51884;DHT22;37915;53.254;6.598;2023-03-14T05:36:29;8.40;99.90
51884;DHT22;37915;53.254;6.598;2023-03-14T05:38:55;8.40;99.90
51884;DHT22;37915;53.254;6.598;2023-03-14T05:41:20;8.40;99.90
51884;DHT22;37915;53.254;6.598;2023-03-14T05:43:46;8.40;99.90
51884;DHT22;37915;53.254;6.598;2023-03-14T05:46:11;8.40;99.90
51884;DHT22;37915;53.254;6.598;2023-03-14T05:48:37;8.40;99.90
51884;DHT22;37915;53.254;6.598;2023-03-14T05:51:03;8.40;99.90
51884;DHT22;37915;53.254;6.598;2023-03-14T05:53:28;8.40;99.90
51884;DHT22;37915;53.254;6.598;2023-03-14T05:55:54;8.40;99.90
51884;DHT22;37915;53.254;6.598;2023-03-14T05:58:20;8.40;99.90
51884;DHT22;37915;53.254;6.598;2023-03-14T06:00:46;8.40;99.90
51884;DHT22;37915;53.254;6.598;2023-03-14T06:03:11;8.40;99.90
51884;DHT22;37915;53.254;6.598;2023-03-14T06:05:37;8.40;99.90
51884;DHT22;37915;53.254;6.598;2023-03-14T06:08:03;8.40;99.90
51884;DHT22;37915;53.254;6.598;2023-03-14T06:10:28;8.40;99.90
51884;DHT22;37915;53.254;6.598;2023-03-14T06:12:54;8.40;99.90
51884;DHT22;37915;53.254;6.598;2023-03-14T06:15:19;8.40;99.90
51884;DHT22;37915;53.254;6.598;2023-03-14T06:17:45;8.40;99.90
51884;DHT22;37915;53.254;6.598;2023-03-14T06:20:10;8.40;99.90
51884;DHT22;37915;53.254;6.598;2023-03-14T06:22:36;8.40;99.90
51884;DHT22;37915;53.254;6.598;2023-03-14T06:25:02;8.40;99.90
51884;DHT22;37915;53.254;6.598;2023-03-14T06:27:29;8.40;99.90
51884;DHT22;37915;53.254;6.598;2023-03-14T06:29:54;8.40;99.90
51884;DHT22;37915;53.254;6.598;2023-03-14T06:32:20;8.20;99.90
51884;DHT22;37915;53.254;6.598;2023-03-14T06:34:46;7.70;99.90
51884;DHT22;37915;53.254;6.598;2023-03-14T06:37:11;7.30;99.90
51884;DHT22;37915;53.254;6.598;2023-03-14T06:39:37;7.90;99.90
51884;DHT22;37915;53.254;6.598;2023-03-14T06:42:04;6.90;99.90
51884;DHT22;37915;53.254;6.598;2023-03-14T06:44:29;6.70;99.90
51884;DHT22;37915;53.254;6.598;2023-03-14T06:46:55;6.60;99.90
51884;DHT22;37915;53.254;6.598;2023-03-14T06:49:20;6.50;99.90
51884;DHT22;37915;53.254;6.598;2023-03-14T06:51:46;6.30;99.90
51884;DHT22;37915;53.254;6.598;2023-03-14T06:54:11;6.10;99.90
51884;DHT22;37915;53.254;6.598;2023-03-14T06:56:37;5.80;99.90
51884;DHT22;37915;53.254;6.598;2023-03-14T06:59:03;5.60;99.90
51884;DHT22;37915;53.254;6.598;2023-03-14T07:01:29;5.30;99.90
51884;DHT22;37915;53.254;6.598;2023-03-14T07:03:55;5.10;99.90
51884;DHT22;37915;53.254;6.598;2023-03-14T07:06:21;5.40;99.90
51884;DHT22;37915;53.254;6.598;2023-03-14T07:08:47;5.30;99.90
51884;DHT22;37915;53.254;6.598;2023-03-14T07:11:12;5.10;99.90
51884;DHT22;37915;53.254;6.598;2023-03-14T07:13:38;4.60;99.90
51884;DHT22;37915;53.254;6.598;2023-03-14T07:16:05;4.80;99.90
51884;DHT22;37915;53.254;6.598;2023-03-14T07:18:31;4.40;99.90
51884;DHT22;37915;53.254;6.598;2023-03-14T07:20:57;4.40;99.90
51884;DHT22;37915;53.254;6.598;2023-03-14T07:23:22;4.30;99.90
51884;DHT22;37915;53.254;6.598;2023-03-14T07:25:49;4.20;99.90
51884;DHT22;37915;53.254;6.598;2023-03-14T07:28:17;4.10;99.90
51884;DHT22;37915;53.254;6.598;2023-03-14T07:33:08;4.00;99.90
51884;DHT22;37915;53.254;6.598;2023-03-14T07:35:34;3.90;99.90
51884;DHT22;37915;53.254;6.598;2023-03-14T07:37:59;3.90;99.90
51884;DHT22;37915;53.254;6.598;2023-03-14T07:40:25;3.90;99.90
51884;DHT22;37915;53.254;6.598;2023-03-14T07:42:50;3.90;99.90
51884;DHT22;37915;53.254;6.598;2023-03-14T07:45:16;4.50;99.90
51884;DHT22;37915;53.254;6.598;2023-03-14T07:47:42;4.00;99.90
51884;DHT22;37915;53.254;6.598;2023-03-14T07:50:07;5.10;99.90
51884;DHT22;37915;53.254;6.598;2023-03-14T07:52:33;4.00;99.90
51884;DHT22;37915;53.254;6.598;2023-03-14T07:54:59;4.10;99.90
51884;DHT22;37915;53.254;6.598;2023-03-14T07:57:24;4.10;99.90
51884;DHT22;37915;53.254;6.598;2023-03-14T07:59:50;4.10;99.90
51884;DHT22;37915;53.254;6.598;2023-03-14T08:02:16;4.20;99.90
51884;DHT22;37915;53.254;6.598;2023-03-14T08:04:41;4.80;99.90
51884;DHT22;37915;53.254;6.598;2023-03-14T08:07:07;4.20;99.90
51884;DHT22;37915;53.254;6.598;2023-03-14T08:09:32;4.20;99.90
51884;DHT22;37915;53.254;6.598;2023-03-14T08:11:58;4.30;99.90
51884;DHT22;37915;53.254;6.598;2023-03-14T08:14:23;4.70;99.90
51884;DHT22;37915;53.254;6.598;2023-03-14T08:16:49;4.40;99.90
51884;DHT22;37915;53.254;6.598;2023-03-14T08:19:15;5.40;99.90
51884;DHT22;37915;53.254;6.598;2023-03-14T08:21:41;4.50;99.90
51884;DHT22;37915;53.254;6.598;2023-03-14T08:24:06;4.60;99.90
51884;DHT22;37915;53.254;6.598;2023-03-14T08:26:32;4.70;99.90
51884;DHT22;37915;53.254;6.598;2023-03-14T08:28:58;4.80;99.90
51884;DHT22;37915;53.254;6.598;2023-03-14T08:31:23;4.80;99.90
51884;DHT22;37915;53.254;6.598;2023-03-14T08:33:49;4.80;99.90
51884;DHT22;37915;53.254;6.598;2023-03-14T08:36:17;4.90;99.90
51884;DHT22;37915;53.254;6.598;2023-03-14T08:38:43;4.90;99.90
51884;DHT22;37915;53.254;6.598;2023-03-14T08:41:09;4.90;99.90
51884;DHT22;37915;53.254;6.598;2023-03-14T08:43:35;5.30;99.90
51884;DHT22;37915;53.254;6.598;2023-03-14T08:46:01;5.00;99.90
51884;DHT22;37915;53.254;6.598;2023-03-14T08:48:27;5.10;99.90
51884;DHT22;37915;53.254;6.598;2023-03-14T08:50:55;5.20;99.90
51884;DHT22;37915;53.254;6.598;2023-03-14T08:53:20;5.30;99.90
51884;DHT22;37915;53.254;6.598;2023-03-14T08:55:51;5.30;99.90
51884;DHT22;37915;53.254;6.598;2023-03-14T08:58:17;5.30;99.90
51884;DHT22;37915;53.254;6.598;2023-03-14T09:00:42;5.40;99.90
51884;DHT22;37915;53.254;6.598;2023-03-14T09:03:08;6.50;99.90
51884;DHT22;37915;53.254;6.598;2023-03-14T09:05:33;5.40;99.90
51884;DHT22;37915;53.254;6.598;2023-03-14T09:07:59;5.50;99.90
51884;DHT22;37915;53.254;6.598;2023-03-14T09:10:25;5.50;99.90
51884;DHT22;37915;53.254;6.598;2023-03-14T09:12:51;5.60;99.90
51884;DHT22;37915;53.254;6.598;2023-03-14T09:15:16;5.60;99.90
51884;DHT22;37915;53.254;6.598;2023-03-14T09:17:42;5.80;99.90
51884;DHT22;37915;53.254;6.598;2023-03-14T09:20:08;5.90;99.90
51884;DHT22;37915;53.254;6.598;2023-03-14T09:22:34;6.00;99.90
51884;DHT22;37915;53.254;6.598;2023-03-14T09:25:01;6.00;99.90
51884;DHT22;37915;53.254;6.598;2023-03-14T09:27:27;6.00;99.90
51884;DHT22;37915;53.254;6.598;2023-03-14T09:29:53;6.00;99.90
51884;DHT22;37915;53.254;6.598;2023-03-14T09:32:18;7.10;99.90
51884;DHT22;37915;53.254;6.598;2023-03-14T09:34:44;5.90;99.90
51884;DHT22;37915;53.254;6.598;2023-03-14T09:37:09;5.90;99.90
51884;DHT22;37915;53.254;6.598;2023-03-14T09:39:35;5.90;99.90
51884;DHT22;37915;53.254;6.598;2023-03-14T09:42:02;5.90;99.90
51884;DHT22;37915;53.254;6.598;2023-03-14T09:47:26;5.90;99.90
51884;DHT22;37915;53.254;6.598;2023-03-14T09:49:52;6.00;99.90
51884;DHT22;37915;53.254;6.598;2023-03-14T09:52:36;5.90;99.90
51884;DHT22;37915;53.254;6.598;2023-03-14T09:55:14;5.90;99.90
51884;DHT22;37915;53.254;6.598;2023-03-14T09:57:41;6.00;99.90
51884;DHT22;37915;53.254;6.598;2023-03-14T10:00:17;6.00;99.90
51884;DHT22;37915;53.254;6.598;2023-03-14T10:02:45;6.00;99.90
51884;DHT22;37915;53.254;6.598;2023-03-14T10:05:17;6.00;99.90
51884;DHT22;37915;53.254;6.598;2023-03-14T10:07:43;6.00;99.90
51884;DHT22;37915;53.254;6.598;2023-03-14T10:10:30;6.00;99.90
51884;DHT22;37915;53.254;6.598;2023-03-14T10:12:59;6.00;99.90
51884;DHT22;37915;53.254;6.598;2023-03-14T10:15:32;6.00;99.90
51884;DHT22;37915;53.254;6.598;2023-03-14T10:17:59;6.00;99.90
51884;DHT22;37915;53.254;6.598;2023-03-14T10:20:35;6.00;99.90
51884;DHT22;37915;53.254;6.598;2023-03-14T10:23:02;6.00;99.90
51884;DHT22;37915;53.254;6.598;2023-03-14T10:25:29;6.00;99.90
51884;DHT22;37915;53.254;6.598;2023-03-14T10:27:55;6.10;99.90
51884;DHT22;37915;53.254;6.598;2023-03-14T10:31:06;6.10;99.90
51884;DHT22;37915;53.254;6.598;2023-03-14T10:33:26;6.10;99.90
51884;DHT22;37915;53.254;6.598;2023-03-14T10:35:56;6.10;99.90
51884;DHT22;37915;53.254;6.598;2023-03-14T10:38:23;6.10;99.90
51884;DHT22;37915;53.254;6.598;2023-03-14T10:40:50;6.10;99.90
51884;DHT22;37915;53.254;6.598;2023-03-14T10:43:19;6.10;99.90
51884;DHT22;37915;53.254;6.598;2023-03-14T10:45:51;6.20;99.90
51884;DHT22;37915;53.254;6.598;2023-03-14T10:48:19;6.40;99.90
51884;DHT22;37915;53.254;6.598;2023-03-14T10:50:49;6.70;99.90
51884;DHT22;37915;53.254;6.598;2023-03-14T10:53:16;6.80;99.90
51884;DHT22;37915;53.254;6.598;2023-03-14T10:55:42;6.80;99.90
51884;DHT22;37915;53.254;6.598;2023-03-14T10:58:21;6.70;99.90
51884;DHT22;37915;53.254;6.598;2023-03-14T11:00:49;6.60;99.90
51884;DHT22;37915;53.254;6.598;2023-03-14T11:03:16;6.50;99.90
51884;DHT22;37915;53.254;6.598;2023-03-14T11:05:44;6.30;99.90
51884;DHT22;37915;53.254;6.598;2023-03-14T11:08:20;6.30;99.90
51884;DHT22;37915;53.254;6.598;2023-03-14T11:10:50;6.50;99.90
51884;DHT22;37915;53.254;6.598;2023-03-14T11:13:26;6.70;99.90
51884;DHT22;37915;53.254;6.598;2023-03-14T11:19:11;6.90;99.90
51884;DHT22;37915;53.254;6.598;2023-03-14T11:21:59;6.80;99.90
51884;DHT22;37915;53.254;6.598;2023-03-14T11:29:40;6.50;99.90
51884;DHT22;37915;53.254;6.598;2023-03-14T11:32:22;6.40;99.90
51884;DHT22;37915;53.254;6.598;2023-03-14T11:34:52;6.40;99.90
51884;DHT22;37915;53.254;6.598;2023-03-14T11:39:59;6.40;99.90
51884;DHT22;37915;53.254;6.598;2023-03-14T11:42:26;6.40;99.90
51884;DHT22;37915;53.254;6.598;2023-03-14T11:44:51;6.50;99.90
51884;DHT22;37915;53.254;6.598;2023-03-14T11:47:32;6.50;99.90
51884;DHT22;37915;53.254;6.598;2023-03-14T11:55:48;6.40;99.90
51884;DHT22;37915;53.254;6.598;2023-03-14T12:00:48;6.60;99.90
51884;DHT22;37915;53.254;6.598;2023-03-14T12:09:16;7.10;99.90
51884;DHT22;37915;53.254;6.598;2023-03-14T12:11:12;7.00;99.90
51884;DHT22;37915;53.254;6.598;2023-03-14T12:13:39;6.90;99.90
51884;DHT22;37915;53.254;6.598;2023-03-14T12:16:06;6.70;99.90
51884;DHT22;37915;53.254;6.598;2023-03-14T12:21:01;6.40;99.90
51884;DHT22;37915;53.254;6.598;2023-03-14T12:23:28;6.30;99.90
51884;DHT22;37915;53.254;6.598;2023-03-14T12:28:38;6.20;99.90
51884;DHT22;37915;53.254;6.598;2023-03-14T12:33:48;6.10;99.90
51884;DHT22;37915;53.254;6.598;2023-03-14T12:36:30;6.00;99.90
51884;DHT22;37915;53.254;6.598;2023-03-14T12:41:53;5.90;99.90
51884;DHT22;37915;53.254;6.598;2023-03-14T12:46:56;6.00;99.90
51884;DHT22;37915;53.254;6.598;2023-03-14T12:49:22;6.00;99.90
51884;DHT22;37915;53.254;6.598;2023-03-14T12:51:58;6.00;99.90
51884;DHT22;37915;53.254;6.598;2023-03-14T12:54:42;6.00;99.90
51884;DHT22;37915;53.254;6.598;2023-03-14T12:59:58;6.00;99.90
51884;DHT22;37915;53.254;6.598;2023-03-14T13:02:38;6.10;99.90
51884;DHT22;37915;53.254;6.598;2023-03-14T13:10:26;6.20;99.90
51884;DHT22;37915;53.254;6.598;2023-03-14T13:13:04;6.20;99.90
51884;DHT22;37915;53.254;6.598;2023-03-14T13:15:40;6.30;99.90
51884;DHT22;37915;53.254;6.598;2023-03-14T13:18:10;6.30;99.90
51884;DHT22;37915;53.254;6.598;2023-03-14T13:20:37;6.30;99.90
51884;DHT22;37915;53.254;6.598;2023-03-14T13:23:03;6.40;99.90
51884;DHT22;37915;53.254;6.598;2023-03-14T13:25:30;6.50;99.90
51884;DHT22;37915;53.254;6.598;2023-03-14T13:27:57;6.50;99.90
51884;DHT22;37915;53.254;6.598;2023-03-14T13:30:25;6.40;99.90
51884;DHT22;37915;53.254;6.598;2023-03-14T13:32:52;6.40;99.90
51884;DHT22;37915;53.254;6.598;2023-03-14T13:35:28;6.60;99.90
51884;DHT22;37915;53.254;6.598;2023-03-14T13:37:58;6.30;99.90
51884;DHT22;37915;53.254;6.598;2023-03-14T13:40:26;6.10;99.90
51884;DHT22;37915;53.254;6.598;2023-03-14T13:43:04;6.00;99.90
51884;DHT22;37915;53.254;6.598;2023-03-14T13:45:30;5.90;99.90
51884;DHT22;37915;53.254;6.598;2023-03-14T13:47:56;6.10;99.90
51884;DHT22;37915;53.254;6.598;2023-03-14T13:50:24;5.90;99.90
51884;DHT22;37915;53.254;6.598;2023-03-14T13:52:54;6.00;99.90
51884;DHT22;37915;53.254;6.598;2023-03-14T13:55:20;6.00;99.90
51884;DHT22;37915;53.254;6.598;2023-03-14T13:57:47;6.00;99.90
51884;DHT22;37915;53.254;6.598;2023-03-14T14:00:19;6.00;99.90
51884;DHT22;37915;53.254;6.598;2023-03-14T14:02:45;6.20;99.90
51884;DHT22;37915;53.254;6.598;2023-03-14T14:05:12;6.50;99.90
51884;DHT22;37915;53.254;6.598;2023-03-14T14:07:39;6.60;99.90
51884;DHT22;37915;53.254;6.598;2023-03-14T14:10:06;6.70;99.90
51884;DHT22;37915;53.254;6.598;2023-03-14T14:12:33;7.00;99.90
51884;DHT22;37915;53.254;6.598;2023-03-14T14:17:31;7.10;99.90
51884;DHT22;37915;53.254;6.598;2023-03-14T14:19:59;6.90;99.90
51884;DHT22;37915;53.254;6.598;2023-03-14T14:22:25;6.70;99.90
51884;DHT22;37915;53.254;6.598;2023-03-14T14:24:51;6.60;99.90
51884;DHT22;37915;53.254;6.598;2023-03-14T14:27:18;6.50;99.90
51884;DHT22;37915;53.254;6.598;2023-03-14T14:29:56;6.40;99.90
51884;DHT22;37915;53.254;6.598;2023-03-14T14:32:22;6.30;99.90
51884;DHT22;37915;53.254;6.598;2023-03-14T14:37:20;6.00;99.90
51884;DHT22;37915;53.254;6.598;2023-03-14T14:39:46;5.90;99.90
51884;DHT22;37915;53.254;6.598;2023-03-14T14:42:15;5.70;99.90
51884;DHT22;37915;53.254;6.598;2023-03-14T14:44:44;5.60;99.90
51884;DHT22;37915;53.254;6.598;2023-03-14T14:47:13;5.50;99.90
51884;DHT22;37915;53.254;6.598;2023-03-14T14:49:40;5.40;99.90
51884;DHT22;37915;53.254;6.598;2023-03-14T14:52:16;5.40;99.90
51884;DHT22;37915;53.254;6.598;2023-03-14T14:54:46;5.50;99.90
51884;DHT22;37915;53.254;6.598;2023-03-14T14:57:18;5.60;99.90
51884;DHT22;37915;53.254;6.598;2023-03-14T14:59:44;5.70;99.90
51884;DHT22;37915;53.254;6.598;2023-03-14T15:02:22;5.90;99.90
51884;DHT22;37915;53.254;6.598;2023-03-14T15:04:50;6.20;99.90
51884;DHT22;37915;53.254;6.598;2023-03-14T15:07:15;6.30;99.90
51884;DHT22;37915;53.254;6.598;2023-03-14T15:09:42;6.40;99.90
51884;DHT22;37915;53.254;6.598;2023-03-14T15:12:07;6.30;99.90
51884;DHT22;37915;53.254;6.598;2023-03-14T15:14:33;6.20;99.90
51884;DHT22;37915;53.254;6.598;2023-03-14T15:16:58;6.30;99.90
51884;DHT22;37915;53.254;6.598;2023-03-14T15:19:24;6.00;99.90
51884;DHT22;37915;53.254;6.598;2023-03-14T15:21:53;6.10;99.90
51884;DHT22;37915;53.254;6.598;2023-03-14T15:24:19;6.10;99.90
51884;DHT22;37915;53.254;6.598;2023-03-14T15:26:45;6.20;99.90
51884;DHT22;37915;53.254;6.598;2023-03-14T15:29:11;6.20;99.90
51884;DHT22;37915;53.254;6.598;2023-03-14T15:31:38;6.20;99.90
51884;DHT22;37915;53.254;6.598;2023-03-14T15:34:03;6.10;99.90
51884;DHT22;37915;53.254;6.598;2023-03-14T15:36:32;6.10;99.90
51884;DHT22;37915;53.254;6.598;2023-03-14T15:38:58;6.30;99.90
51884;DHT22;37915;53.254;6.598;2023-03-14T15:41:25;5.90;99.90
51884;DHT22;37915;53.254;6.598;2023-03-14T15:43:51;5.80;99.90
51884;DHT22;37915;53.254;6.598;2023-03-14T15:46:17;5.70;99.90
51884;DHT22;37915;53.254;6.598;2023-03-14T15:48:46;5.70;99.90
51884;DHT22;37915;53.254;6.598;2023-03-14T15:51:12;5.60;99.90
51884;DHT22;37915;53.254;6.598;2023-03-14T15:53:38;5.60;99.90
51884;DHT22;37915;53.254;6.598;2023-03-14T15:56:07;5.70;99.90
51884;DHT22;37915;53.254;6.598;2023-03-14T15:58:36;5.70;99.90
51884;DHT22;37915;53.254;6.598;2023-03-14T16:01:01;5.70;99.90
51884;DHT22;37915;53.254;6.598;2023-03-14T16:03:30;6.20;99.90
51884;DHT22;37915;53.254;6.598;2023-03-14T16:05:56;5.60;99.90
51884;DHT22;37915;53.254;6.598;2023-03-14T16:08:23;5.60;99.90
51884;DHT22;37915;53.254;6.598;2023-03-14T16:10:50;5.50;99.90
51884;DHT22;37915;53.254;6.598;2023-03-14T16:13:16;5.80;99.90
51884;DHT22;37915;53.254;6.598;2023-03-14T16:15:41;5.50;99.90
51884;DHT22;37915;53.254;6.598;2023-03-14T16:18:07;5.30;99.90
51884;DHT22;37915;53.254;6.598;2023-03-14T16:22:58;5.10;99.90
51884;DHT22;37915;53.254;6.598;2023-03-14T16:25:24;4.60;99.90
51884;DHT22;37915;53.254;6.598;2023-03-14T16:27:49;4.40;99.90
51884;DHT22;37915;53.254;6.598;2023-03-14T16:30:15;4.40;99.90
51884;DHT22;37915;53.254;6.598;2023-03-14T16:32:41;4.30;99.90
51884;DHT22;37915;53.254;6.598;2023-03-14T16:35:06;4.40;99.90
51884;DHT22;37915;53.254;6.598;2023-03-14T16:37:32;4.30;99.90
51884;DHT22;37915;53.254;6.598;2023-03-14T16:39:58;4.30;99.90
51884;DHT22;37915;53.254;6.598;2023-03-14T16:42:23;4.40;99.90
51884;DHT22;37915;53.254;6.598;2023-03-14T16:44:49;4.90;99.90
51884;DHT22;37915;53.254;6.598;2023-03-14T16:47:14;4.40;99.90
51884;DHT22;37915;53.254;6.598;2023-03-14T16:49:40;4.80;99.90
51884;DHT22;37915;53.254;6.598;2023-03-14T16:52:06;4.50;99.90